sensor_id;sensor_type;location;lat;lon;timestamp;P1;durP1;ratioP1;P2;durP2;ratioP2
3231;SDS011;1628;48.884;9.210;2022-09-25T04:02:15;23.17;;;21.17;;
3231;SDS011;1628;48.884;9.210;2022-09-25T04:04:41;21.37;;;19.37;;
3231;SDS011;1628;48.884;9.210;2022-09-25T04:07:09;23.27;;;21.17;;
3231;SDS011;1628;48.884;9.210;2022-09-25T04:09:36;23.47;;;21.20;;
3231;SDS011;1628;48.884;9.210;2022-09-25T04:12:03;25.03;;;22.17;;
3231;SDS011;1628;48.884;9.210;2022-09-25T04:14:31;23.23;;;21.10;;
3231;SDS011;1628;48.884;9.210;2022-09-25T04:16:58;21.40;;;19.40;;
3231;SDS011;1628;48.884;9.210;2022-09-25T04:19:25;23.13;;;21.03;;
3231;SDS011;1628;48.884;9.210;2022-09-25T04:21:52;23.83;;;21.63;;
3231;SDS011;1628;48.884;9.210;2022-09-25T04:24:19;22.57;;;20.67;;
3231;SDS011;1628;48.884;9.210;2022-09-25T04:27:03;23.90;;;21.53;;
3231;SDS011;1628;48.884;9.210;2022-09-25T04:29:30;22.07;;;20.17;;
3231;SDS011;1628;48.884;9.210;2022-09-25T04:31:57;22.47;;;20.33;;
3231;SDS011;1628;48.884;9.210;2022-09-25T04:34:42;21.70;;;19.63;;
3231;SDS011;1628;48.884;9.210;2022-09-25T04:37:09;22.37;;;20.30;;
3231;SDS011;1628;48.884;9.210;2022-09-25T04:39:36;23.03;;;21.00;;
3231;SDS011;1628;48.884;9.210;2022-09-25T04:42:04;22.63;;;20.73;;
3231;SDS011;1628;48.884;9.210;2022-09-25T04:44:31;24.37;;;22.13;;
3231;SDS011;1628;48.884;9.210;2022-09-25T04:46:57;22.70;;;20.70;;
3231;SDS011;1628;48.884;9.210;2022-09-25T04:49:24;22.30;;;20.20;;
3231;SDS011;1628;48.884;9.210;2022-09-25T04:51:52;21.33;;;19.43;;
3231;SDS011;1628;48.884;9.210;2022-09-25T04:54:20;24.27;;;21.97;;
3231;SDS011;1628;48.884;9.210;2022-09-25T04:56:47;21.97;;;19.87;;
3231;SDS011;1628;48.884;9.210;2022-09-25T04:59:14;20.40;;;18.60;;
3231;SDS011;1628;48.884;9.210;2022-09-25T05:01:41;20.77;;;18.77;;
3231;SDS011;1628;48.884;9.210;2022-09-25T05:04:08;21.40;;;19.43;;
3231;SDS011;1628;48.884;9.210;2022-09-25T05:06:34;20.77;;;18.90;;
3231;SDS011;1628;48.884;9.210;2022-09-25T05:09:02;22.97;;;20.97;;
3231;SDS011;1628;48.884;9.210;2022-09-25T05:11:29;23.87;;;21.40;;
3231;SDS011;1628;48.884;9.210;2022-09-25T05:13:56;23.67;;;21.57;;
3231;SDS011;1628;48.884;9.210;2022-09-25T05:16:22;23.73;;;21.50;;
3231;SDS011;1628;48.884;9.210;2022-09-25T05:18:49;25.17;;;22.63;;
3231;SDS011;1628;48.884;9.210;2022-09-25T05:21:15;24.60;;;22.40;;
3231;SDS011;1628;48.884;9.210;2022-09-25T05:23:42;25.40;;;23.10;;
3231;SDS011;1628;48.884;9.210;2022-09-25T05:26:10;23.53;;;21.33;;
3231;SDS011;1628;48.884;9.210;2022-09-25T05:28:37;22.90;;;20.90;;
3231;SDS011;1628;48.884;9.210;2022-09-25T05:31:04;24.53;;;22.33;;
3231;SDS011;1628;48.884;9.210;2022-09-25T05:33:31;22.37;;;20.30;;
3231;SDS011;1628;48.884;9.210;2022-09-25T05:35:59;23.33;;;21.23;;
3231;SDS011;1628;48.884;9.210;2022-09-25T05:38:26;24.07;;;21.77;;
3231;SDS011;1628;48.884;9.210;2022-09-25T05:40:54;24.20;;;21.90;;
3231;SDS011;1628;48.884;9.210;2022-09-25T05:43:22;22.67;;;20.53;;
3231;SDS011;1628;48.884;9.210;2022-09-25T05:45:52;23.33;;;21.23;;
3231;SDS011;1628;48.884;9.210;2022-09-25T05:48:19;24.53;;;22.33;;
3231;SDS011;1628;48.884;9.210;2022-09-25T05:50:49;29.40;;;24.83;;
3231;SDS011;1628;48.884;9.210;2022-09-25T05:53:16;25.37;;;23.13;;
3231;SDS011;1628;48.884;9.210;2022-09-25T05:55:47;26.83;;;24.30;;
3231;SDS011;1628;48.884;9.210;2022-09-25T05:58:14;33.13;;;27.93;;
3231;SDS011;1628;48.884;9.210;2022-09-25T06:00:42;31.33;;;28.10;;
3231;SDS011;1628;48.884;9.210;2022-09-25T06:03:09;31.13;;;27.33;;
3231;SDS011;1628;48.884;9.210;2022-09-25T06:05:36;30.60;;;27.60;;
3231;SDS011;1628;48.884;9.210;2022-09-25T06:08:04;29.87;;;26.80;;
3231;SDS011;1628;48.884;9.210;2022-09-25T06:10:31;31.87;;;28.57;;
3231;SDS011;1628;48.884;9.210;2022-09-25T06:12:58;32.03;;;28.63;;
3231;SDS011;1628;48.884;9.210;2022-09-25T06:15:25;32.50;;;29.00;;
3231;SDS011;1628;48.884;9.210;2022-09-25T06:17:54;31.87;;;28.47;;
3231;SDS011;1628;48.884;9.210;2022-09-25T06:20:21;30.37;;;27.30;;
3231;SDS011;1628;48.884;9.210;2022-09-25T06:22:51;28.53;;;25.63;;
3231;SDS011;1628;48.884;9.210;2022-09-25T06:25:18;30.80;;;26.47;;
3231;SDS011;1628;48.884;9.210;2022-09-25T06:27:45;27.40;;;24.30;;
3231;SDS011;1628;48.884;9.210;2022-09-25T06:30:11;25.80;;;23.00;;
3231;SDS011;1628;48.884;9.210;2022-09-25T06:32:38;27.43;;;24.77;;
3231;SDS011;1628;48.884;9.210;2022-09-25T06:35:06;27.23;;;24.30;;
3231;SDS011;1628;48.884;9.210;2022-09-25T06:37:34;23.80;;;21.40;;
3231;SDS011;1628;48.884;9.210;2022-09-25T06:40:00;23.40;;;21.10;;
3231;SDS011;1628;48.884;9.210;2022-09-25T06:42:27;23.07;;;20.70;;
3231;SDS011;1628;48.884;9.210;2022-09-25T06:44:54;22.40;;;20.20;;
3231;SDS011;1628;48.884;9.210;2022-09-25T06:47:21;21.80;;;19.70;;
3231;SDS011;1628;48.884;9.210;2022-09-25T06:49:47;22.73;;;20.33;;
3231;SDS011;1628;48.884;9.210;2022-09-25T06:52:15;22.23;;;19.73;;
3231;SDS011;1628;48.884;9.210;2022-09-25T06:54:42;22.13;;;19.93;;
3231;SDS011;1628;48.884;9.210;2022-09-25T06:57:09;22.43;;;20.13;;
3231;SDS011;1628;48.884;9.210;2022-09-25T06:59:36;21.83;;;19.27;;
3231;SDS011;1628;48.884;9.210;2022-09-25T07:02:03;22.40;;;20.20;;
3231;SDS011;1628;48.884;9.210;2022-09-25T07:04:50;21.33;;;19.40;;
3231;SDS011;1628;48.884;9.210;2022-09-25T07:07:17;20.73;;;18.67;;
3231;SDS011;1628;48.884;9.210;2022-09-25T07:09:45;22.20;;;20.00;;
3231;SDS011;1628;48.884;9.210;2022-09-25T07:12:13;22.13;;;19.90;;
3231;SDS011;1628;48.884;9.210;2022-09-25T07:14:39;22.07;;;19.93;;
3231;SDS011;1628;48.884;9.210;2022-09-25T07:17:07;23.27;;;20.97;;
3231;SDS011;1628;48.884;9.210;2022-09-25T07:19:34;21.97;;;19.77;;
3231;SDS011;1628;48.884;9.210;2022-09-25T07:22:01;22.17;;;20.00;;
3231;SDS011;1628;48.884;9.210;2022-09-25T07:24:30;22.10;;;19.90;;
3231;SDS011;1628;48.884;9.210;2022-09-25T07:26:57;22.97;;;20.50;;
3231;SDS011;1628;48.884;9.210;2022-09-25T07:29:24;24.17;;;21.77;;
3231;SDS011;1628;48.884;9.210;2022-09-25T07:31:50;23.87;;;21.37;;
3231;SDS011;1628;48.884;9.210;2022-09-25T07:34:17;23.33;;;21.03;;
3231;SDS011;1628;48.884;9.210;2022-09-25T07:36:44;24.90;;;22.50;;
3231;SDS011;1628;48.884;9.210;2022-09-25T07:39:11;24.40;;;22.03;;
3231;SDS011;1628;48.884;9.210;2022-09-25T07:41:39;22.07;;;19.80;;
3231;SDS011;1628;48.884;9.210;2022-09-25T07:44:06;20.37;;;18.40;;
3231;SDS011;1628;48.884;9.210;2022-09-25T07:46:33;21.33;;;19.23;;
3231;SDS011;1628;48.884;9.210;2022-09-25T07:48:59;18.83;;;17.10;;
3231;SDS011;1628;48.884;9.210;2022-09-25T07:51:26;19.23;;;17.50;;
3231;SDS011;1628;48.884;9.210;2022-09-25T07:53:53;17.93;;;16.37;;
3231;SDS011;1628;48.884;9.210;2022-09-25T07:56:20;18.07;;;16.40;;
3231;SDS011;1628;48.884;9.210;2022-09-25T07:58:51;15.23;;;13.90;;
3231;SDS011;1628;48.884;9.210;2022-09-25T08:01:18;13.90;;;12.70;;
3231;SDS011;1628;48.884;9.210;2022-09-25T08:03:45;14.67;;;13.37;;
3231;SDS011;1628;48.884;9.210;2022-09-25T08:06:12;13.97;;;12.67;;
3231;SDS011;1628;48.884;9.210;2022-09-25T08:08:39;13.87;;;12.80;;
3231;SDS011;1628;48.884;9.210;2022-09-25T08:11:07;15.40;;;14.03;;
3231;SDS011;1628;48.884;9.210;2022-09-25T08:13:36;14.43;;;13.23;;
3231;SDS011;1628;48.884;9.210;2022-09-25T08:16:05;12.60;;;11.40;;
3231;SDS011;1628;48.884;9.210;2022-09-25T08:18:35;12.23;;;11.23;;
3231;SDS011;1628;48.884;9.210;2022-09-25T08:21:03;13.60;;;12.50;;
3231;SDS011;1628;48.884;9.210;2022-09-25T08:23:30;13.27;;;12.10;;
3231;SDS011;1628;48.884;9.210;2022-09-25T08:25:57;11.83;;;10.93;;
3231;SDS011;1628;48.884;9.210;2022-09-25T08:28:24;11.47;;;10.40;;
3231;SDS011;1628;48.884;9.210;2022-09-25T08:30:51;11.70;;;10.80;;
3231;SDS011;1628;48.884;9.210;2022-09-25T08:33:19;12.27;;;10.90;;
3231;SDS011;1628;48.884;9.210;2022-09-25T08:35:53;11.33;;;10.37;;
3231;SDS011;1628;48.884;9.210;2022-09-25T08:38:20;12.27;;;11.17;;
3231;SDS011;1628;48.884;9.210;2022-09-25T08:40:50;11.97;;;11.07;;
3231;SDS011;1628;48.884;9.210;2022-09-25T08:43:20;12.70;;;11.53;;
3231;SDS011;1628;48.884;9.210;2022-09-25T08:45:48;14.90;;;12.60;;
3231;SDS011;1628;48.884;9.210;2022-09-25T08:48:35;11.60;;;10.60;;
3231;SDS011;1628;48.884;9.210;2022-09-25T08:51:25;13.50;;;12.30;;
3231;SDS011;1628;48.884;9.210;2022-09-25T08:53:52;15.33;;;11.13;;
3231;SDS011;1628;48.884;9.210;2022-09-25T08:56:19;13.27;;;11.53;;
3231;SDS011;1628;48.884;9.210;2022-09-25T08:58:50;11.47;;;10.30;;
3231;SDS011;1628;48.884;9.210;2022-09-25T09:01:20;13.63;;;12.23;;
3231;SDS011;1628;48.884;9.210;2022-09-25T09:03:52;13.40;;;12.20;;
3231;SDS011;1628;48.884;9.210;2022-09-25T09:06:23;12.73;;;11.67;;
3231;SDS011;1628;48.884;9.210;2022-09-25T09:09:00;14.27;;;12.87;;
3231;SDS011;1628;48.884;9.210;2022-09-25T09:11:32;14.20;;;12.90;;
3231;SDS011;1628;48.884;9.210;2022-09-25T09:14:03;13.87;;;12.67;;
3231;SDS011;1628;48.884;9.210;2022-09-25T09:16:33;16.37;;;12.53;;
3231;SDS011;1628;48.884;9.210;2022-09-25T09:19:08;14.73;;;13.43;;
3231;SDS011;1628;48.884;9.210;2022-09-25T09:21:37;13.23;;;12.13;;
3231;SDS011;1628;48.884;9.210;2022-09-25T09:24:08;14.37;;;13.03;;
3231;SDS011;1628;48.884;9.210;2022-09-25T09:26:44;14.17;;;12.97;;
3231;SDS011;1628;48.884;9.210;2022-09-25T09:29:32;15.00;;;13.60;;
3231;SDS011;1628;48.884;9.210;2022-09-25T09:32:16;15.07;;;13.67;;
3231;SDS011;1628;48.884;9.210;2022-09-25T09:34:55;15.13;;;13.73;;
3231;SDS011;1628;48.884;9.210;2022-09-25T09:37:33;16.90;;;15.27;;
3231;SDS011;1628;48.884;9.210;2022-09-25T09:40:15;16.23;;;14.53;;
3231;SDS011;1628;48.884;9.210;2022-09-25T09:42:49;16.33;;;14.80;;
3231;SDS011;1628;48.884;9.210;2022-09-25T09:45:24;16.63;;;15.03;;
3231;SDS011;1628;48.884;9.210;2022-09-25T09:47:58;17.53;;;15.87;;
3231;SDS011;1628;48.884;9.210;2022-09-25T09:50:34;18.47;;;16.77;;
3231;SDS011;1628;48.884;9.210;2022-09-25T09:53:09;18.47;;;16.83;;
3231;SDS011;1628;48.884;9.210;2022-09-25T09:55:43;19.53;;;17.70;;
3231;SDS011;1628;48.884;9.210;2022-09-25T09:58:15;19.10;;;17.10;;
3231;SDS011;1628;48.884;9.210;2022-09-25T10:00:46;17.43;;;15.73;;
3231;SDS011;1628;48.884;9.210;2022-09-25T10:03:16;18.73;;;16.97;;
3231;SDS011;1628;48.884;9.210;2022-09-25T10:05:47;19.07;;;17.23;;
3231;SDS011;1628;48.884;9.210;2022-09-25T10:08:15;17.20;;;15.60;;
3231;SDS011;1628;48.884;9.210;2022-09-25T10:10:42;18.97;;;17.33;;
3231;SDS011;1628;48.884;9.210;2022-09-25T10:13:12;18.53;;;16.73;;
3231;SDS011;1628;48.884;9.210;2022-09-25T10:15:43;19.40;;;17.37;;
3231;SDS011;1628;48.884;9.210;2022-09-25T10:18:13;19.20;;;17.37;;
3231;SDS011;1628;48.884;9.210;2022-09-25T10:20:42;18.53;;;16.83;;
3231;SDS011;1628;48.884;9.210;2022-09-25T10:23:15;19.47;;;15.43;;
3231;SDS011;1628;48.884;9.210;2022-09-25T10:25:55;17.67;;;16.07;;
3231;SDS011;1628;48.884;9.210;2022-09-25T10:28:24;20.30;;;17.17;;
3231;SDS011;1628;48.884;9.210;2022-09-25T10:30:53;18.83;;;17.03;;
3231;SDS011;1628;48.884;9.210;2022-09-25T10:33:21;17.60;;;15.43;;
3231;SDS011;1628;48.884;9.210;2022-09-25T10:35:50;17.10;;;15.50;;
3231;SDS011;1628;48.884;9.210;2022-09-25T10:38:27;18.00;;;15.10;;
3231;SDS011;1628;48.884;9.210;2022-09-25T10:41:01;17.97;;;16.17;;
3231;SDS011;1628;48.884;9.210;2022-09-25T10:43:31;18.63;;;16.30;;
3231;SDS011;1628;48.884;9.210;2022-09-25T10:46:10;16.67;;;15.10;;
3231;SDS011;1628;48.884;9.210;2022-09-25T10:48:38;15.47;;;14.07;;
3231;SDS011;1628;48.884;9.210;2022-09-25T10:51:23;18.27;;;16.33;;
3231;SDS011;1628;48.884;9.210;2022-09-25T10:53:53;17.70;;;16.00;;
3231;SDS011;1628;48.884;9.210;2022-09-25T10:56:35;19.13;;;17.43;;
3231;SDS011;1628;48.884;9.210;2022-09-25T10:59:07;18.43;;;16.63;;
3231;SDS011;1628;48.884;9.210;2022-09-25T11:01:42;18.33;;;16.63;;
3231;SDS011;1628;48.884;9.210;2022-09-25T11:04:11;19.50;;;17.60;;
3231;SDS011;1628;48.884;9.210;2022-09-25T11:06:42;19.53;;;17.63;;
3231;SDS011;1628;48.884;9.210;2022-09-25T11:09:13;19.50;;;17.60;;
3231;SDS011;1628;48.884;9.210;2022-09-25T11:11:42;17.60;;;15.90;;
3231;SDS011;1628;48.884;9.210;2022-09-25T11:14:17;18.13;;;16.43;;
3231;SDS011;1628;48.884;9.210;2022-09-25T11:16:49;18.17;;;16.57;;
3231;SDS011;1628;48.884;9.210;2022-09-25T11:19:19;20.17;;;18.20;;
3231;SDS011;1628;48.884;9.210;2022-09-25T11:21:53;18.87;;;17.13;;
3231;SDS011;1628;48.884;9.210;2022-09-25T11:24:32;18.60;;;16.70;;
3231;SDS011;1628;48.884;9.210;2022-09-25T11:27:08;19.20;;;17.20;;
3231;SDS011;1628;48.884;9.210;2022-09-25T11:29:41;17.87;;;16.07;;
3231;SDS011;1628;48.884;9.210;2022-09-25T11:32:17;18.07;;;16.27;;
3231;SDS011;1628;48.884;9.210;2022-09-25T11:34:59;17.70;;;16.00;;
3231;SDS011;1628;48.884;9.210;2022-09-25T11:37:45;17.90;;;16.30;;
3231;SDS011;1628;48.884;9.210;2022-09-25T11:40:26;18.63;;;17.03;;
3231;SDS011;1628;48.884;9.210;2022-09-25T11:43:19;17.83;;;16.03;;
3231;SDS011;1628;48.884;9.210;2022-09-25T11:45:52;19.33;;;15.50;;
3231;SDS011;1628;48.884;9.210;2022-09-25T11:48:24;21.20;;;16.43;;
3231;SDS011;1628;48.884;9.210;2022-09-25T11:51:01;19.70;;;17.77;;
3231;SDS011;1628;48.884;9.210;2022-09-25T11:53:37;19.77;;;17.97;;
3231;SDS011;1628;48.884;9.210;2022-09-25T11:56:16;17.37;;;15.77;;
3231;SDS011;1628;48.884;9.210;2022-09-25T11:58:56;17.87;;;16.03;;
3231;SDS011;1628;48.884;9.210;2022-09-25T12:01:43;17.90;;;16.20;;
3231;SDS011;1628;48.884;9.210;2022-09-25T12:04:19;16.60;;;15.20;;
3231;SDS011;1628;48.884;9.210;2022-09-25T12:07:17;17.43;;;15.93;;
3231;SDS011;1628;48.884;9.210;2022-09-25T12:10:02;16.33;;;14.70;;
3231;SDS011;1628;48.884;9.210;2022-09-25T12:12:47;15.80;;;14.30;;
3231;SDS011;1628;48.884;9.210;2022-09-25T12:15:25;15.00;;;13.80;;
3231;SDS011;1628;48.884;9.210;2022-09-25T12:18:01;17.47;;;14.10;;
3231;SDS011;1628;48.884;9.210;2022-09-25T12:20:36;15.23;;;13.80;;
3231;SDS011;1628;48.884;9.210;2022-09-25T12:23:14;16.30;;;14.70;;
3231;SDS011;1628;48.884;9.210;2022-09-25T12:25:49;15.57;;;14.17;;
3231;SDS011;1628;48.884;9.210;2022-09-25T12:28:29;16.10;;;14.50;;
3231;SDS011;1628;48.884;9.210;2022-09-25T12:31:05;11.97;;;10.87;;
3231;SDS011;1628;48.884;9.210;2022-09-25T12:33:41;10.57;;;9.70;;
3231;SDS011;1628;48.884;9.210;2022-09-25T12:36:17;9.13;;;8.43;;
3231;SDS011;1628;48.884;9.210;2022-09-25T12:38:49;9.23;;;8.43;;
3231;SDS011;1628;48.884;9.210;2022-09-25T12:41:21;8.83;;;8.23;;
3231;SDS011;1628;48.884;9.210;2022-09-25T12:43:56;8.00;;;7.30;;
3231;SDS011;1628;48.884;9.210;2022-09-25T12:46:29;7.77;;;7.07;;
3231;SDS011;1628;48.884;9.210;2022-09-25T12:49:00;7.70;;;6.50;;
3231;SDS011;1628;48.884;9.210;2022-09-25T12:51:38;5.83;;;5.43;;
3231;SDS011;1628;48.884;9.210;2022-09-25T12:54:12;5.90;;;5.50;;
3231;SDS011;1628;48.884;9.210;2022-09-25T12:56:49;6.27;;;5.77;;
3231;SDS011;1628;48.884;9.210;2022-09-25T12:59:22;6.03;;;5.63;;
3231;SDS011;1628;48.884;9.210;2022-09-25T13:01:55;5.10;;;4.80;;
3231;SDS011;1628;48.884;9.210;2022-09-25T13:04:47;6.40;;;5.90;;
3231;SDS011;1628;48.884;9.210;2022-09-25T13:07:24;6.07;;;5.57;;
3231;SDS011;1628;48.884;9.210;2022-09-25T13:09:57;6.40;;;6.00;;
3231;SDS011;1628;48.884;9.210;2022-09-25T13:12:27;6.77;;;6.27;;
3231;SDS011;1628;48.884;9.210;2022-09-25T13:15:00;7.50;;;6.90;;
3231;SDS011;1628;48.884;9.210;2022-09-25T13:17:32;12.53;;;7.80;;
3231;SDS011;1628;48.884;9.210;2022-09-25T13:23:07;8.47;;;7.87;;
3231;SDS011;1628;48.884;9.210;2022-09-25T13:25:38;8.20;;;7.67;;
3231;SDS011;1628;48.884;9.210;2022-09-25T13:28:08;9.37;;;8.57;;
3231;SDS011;1628;48.884;9.210;2022-09-25T13:30:56;8.27;;;7.67;;
3231;SDS011;1628;48.884;9.210;2022-09-25T13:33:26;7.83;;;7.13;;
3231;SDS011;1628;48.884;9.210;2022-09-25T13:36:09;8.47;;;7.87;;
3231;SDS011;1628;48.884;9.210;2022-09-25T13:38:48;8.90;;;8.20;;
3231;SDS011;1628;48.884;9.210;2022-09-25T13:41:39;8.90;;;8.20;;
3231;SDS011;1628;48.884;9.210;2022-09-25T13:50:16;7.10;;;6.60;;
3231;SDS011;1628;48.884;9.210;2022-09-25T14:01:56;7.20;;;6.60;;
3231;SDS011;1628;48.884;9.210;2022-09-25T14:04:30;6.33;;;5.63;;
3231;SDS011;1628;48.884;9.210;2022-09-25T14:07:04;6.13;;;5.73;;
3231;SDS011;1628;48.884;9.210;2022-09-25T14:09:36;7.30;;;6.60;;
3231;SDS011;1628;48.884;9.210;2022-09-25T14:12:12;6.37;;;5.87;;
3231;SDS011;1628;48.884;9.210;2022-09-25T14:14:44;6.90;;;6.40;;
3231;SDS011;1628;48.884;9.210;2022-09-25T14:17:17;6.37;;;5.87;;
3231;SDS011;1628;48.884;9.210;2022-09-25T14:19:47;6.87;;;6.27;;
3231;SDS011;1628;48.884;9.210;2022-09-25T14:22:19;6.53;;;6.03;;
3231;SDS011;1628;48.884;9.210;2022-09-25T14:24:50;5.00;;;4.70;;
3231;SDS011;1628;48.884;9.210;2022-09-25T14:27:20;8.60;;;4.50;;
3231;SDS011;1628;48.884;9.210;2022-09-25T14:29:49;5.13;;;4.70;;
3231;SDS011;1628;48.884;9.210;2022-09-25T14:32:18;4.13;;;3.90;;
3231;SDS011;1628;48.884;9.210;2022-09-25T14:35:03;4.43;;;4.23;;
3231;SDS011;1628;48.884;9.210;2022-09-25T14:37:50;3.53;;;3.10;;
3231;SDS011;1628;48.884;9.210;2022-09-25T14:40:33;3.87;;;3.67;;
3231;SDS011;1628;48.884;9.210;2022-09-25T14:43:06;3.80;;;3.60;;
3231;SDS011;1628;48.884;9.210;2022-09-25T14:45:55;5.20;;;4.90;;
3231;SDS011;1628;48.884;9.210;2022-09-25T14:48:26;4.73;;;4.30;;
3231;SDS011;1628;48.884;9.210;2022-09-25T14:50:58;4.60;;;4.30;;
3231;SDS011;1628;48.884;9.210;2022-09-25T14:53:31;5.17;;;4.87;;
3231;SDS011;1628;48.884;9.210;2022-09-25T14:56:03;5.00;;;4.70;;
3231;SDS011;1628;48.884;9.210;2022-09-25T14:58:35;4.50;;;4.20;;
3231;SDS011;1628;48.884;9.210;2022-09-25T15:01:09;4.77;;;4.47;;
3231;SDS011;1628;48.884;9.210;2022-09-25T15:03:43;3.77;;;3.47;;
3231;SDS011;1628;48.884;9.210;2022-09-25T15:06:22;4.53;;;4.27;;
3231;SDS011;1628;48.884;9.210;2022-09-25T15:08:51;4.60;;;4.30;;
3231;SDS011;1628;48.884;9.210;2022-09-25T15:11:18;3.80;;;3.60;;
3231;SDS011;1628;48.884;9.210;2022-09-25T15:13:46;4.60;;;4.20;;
3231;SDS011;1628;48.884;9.210;2022-09-25T15:16:13;4.40;;;4.10;;
3231;SDS011;1628;48.884;9.210;2022-09-25T15:19:15;4.50;;;4.10;;
3231;SDS011;1628;48.884;9.210;2022-09-25T15:21:46;3.80;;;3.60;;
3231;SDS011;1628;48.884;9.210;2022-09-25T15:24:16;4.30;;;3.90;;
3231;SDS011;1628;48.884;9.210;2022-09-25T15:26:47;4.10;;;3.80;;
3231;SDS011;1628;48.884;9.210;2022-09-25T15:29:16;3.97;;;3.70;;
3231;SDS011;1628;48.884;9.210;2022-09-25T15:31:45;3.40;;;3.30;;
3231;SDS011;1628;48.884;9.210;2022-09-25T15:34:19;3.80;;;3.60;;
3231;SDS011;1628;48.884;9.210;2022-09-25T15:36:49;3.03;;;2.83;;
3231;SDS011;1628;48.884;9.210;2022-09-25T15:39:17;3.80;;;3.60;;
3231;SDS011;1628;48.884;9.210;2022-09-25T15:41:48;4.03;;;3.83;;
3231;SDS011;1628;48.884;9.210;2022-09-25T15:44:18;4.20;;;3.90;;
3231;SDS011;1628;48.884;9.210;2022-09-25T15:46:47;3.80;;;3.50;;
3231;SDS011;1628;48.884;9.210;2022-09-25T15:49:17;3.80;;;3.60;;
3231;SDS011;1628;48.884;9.210;2022-09-25T15:51:48;4.73;;;4.43;;
3231;SDS011;1628;48.884;9.210;2022-09-25T15:54:23;4.30;;;4.00;;
3231;SDS011;1628;48.884;9.210;2022-09-25T15:56:59;4.50;;;4.10;;
3231;SDS011;1628;48.884;9.210;2022-09-25T15:59:28;4.37;;;3.97;;
3231;SDS011;1628;48.884;9.210;2022-09-25T16:01:58;3.90;;;3.70;;
3231;SDS011;1628;48.884;9.210;2022-09-25T16:04:49;4.00;;;3.77;;
3231;SDS011;1628;48.884;9.210;2022-09-25T16:07:25;4.00;;;3.80;;
3231;SDS011;1628;48.884;9.210;2022-09-25T16:09:54;3.40;;;3.20;;
3231;SDS011;1628;48.884;9.210;2022-09-25T16:12:27;2.90;;;2.80;;
3231;SDS011;1628;48.884;9.210;2022-09-25T16:14:55;2.50;;;2.40;;
3231;SDS011;1628;48.884;9.210;2022-09-25T16:17:25;3.50;;;3.30;;
3231;SDS011;1628;48.884;9.210;2022-09-25T16:19:57;4.20;;;3.90;;
3231;SDS011;1628;48.884;9.210;2022-09-25T16:22:34;4.63;;;4.33;;
3231;SDS011;1628;48.884;9.210;2022-09-25T16:25:15;4.03;;;3.83;;
3231;SDS011;1628;48.884;9.210;2022-09-25T16:27:45;4.17;;;3.97;;
3231;SDS011;1628;48.884;9.210;2022-09-25T16:30:14;5.00;;;4.70;;
3231;SDS011;1628;48.884;9.210;2022-09-25T16:32:43;4.30;;;4.10;;
3231;SDS011;1628;48.884;9.210;2022-09-25T16:35:18;4.70;;;4.43;;
3231;SDS011;1628;48.884;9.210;2022-09-25T16:37:50;4.70;;;4.40;;
3231;SDS011;1628;48.884;9.210;2022-09-25T16:40:20;4.90;;;4.70;;
3231;SDS011;1628;48.884;9.210;2022-09-25T16:42:49;5.57;;;5.27;;
3231;SDS011;1628;48.884;9.210;2022-09-25T16:45:18;5.90;;;5.47;;
3231;SDS011;1628;48.884;9.210;2022-09-25T16:47:47;5.20;;;4.83;;
3231;SDS011;1628;48.884;9.210;2022-09-25T16:50:15;5.17;;;4.77;;
3231;SDS011;1628;48.884;9.210;2022-09-25T16:52:42;4.33;;;4.13;;
3231;SDS011;1628;48.884;9.210;2022-09-25T16:55:21;3.47;;;3.27;;
3231;SDS011;1628;48.884;9.210;2022-09-25T16:57:49;2.60;;;2.40;;
3231;SDS011;1628;48.884;9.210;2022-09-25T17:00:16;3.60;;;3.30;;
3231;SDS011;1628;48.884;9.210;2022-09-25T17:02:45;4.70;;;4.40;;
3231;SDS011;1628;48.884;9.210;2022-09-25T17:05:14;5.47;;;4.97;;
3231;SDS011;1628;48.884;9.210;2022-09-25T17:07:43;6.13;;;5.63;;
3231;SDS011;1628;48.884;9.210;2022-09-25T17:10:11;5.77;;;5.37;;
3231;SDS011;1628;48.884;9.210;2022-09-25T17:12:41;6.20;;;5.80;;
3231;SDS011;1628;48.884;9.210;2022-09-25T17:15:18;6.20;;;5.70;;
3231;SDS011;1628;48.884;9.210;2022-09-25T17:17:47;5.27;;;4.97;;
3231;SDS011;1628;48.884;9.210;2022-09-25T17:20:17;5.53;;;5.13;;
3231;SDS011;1628;48.884;9.210;2022-09-25T17:22:44;5.33;;;5.03;;
3231;SDS011;1628;48.884;9.210;2022-09-25T17:25:19;5.83;;;5.47;;
3231;SDS011;1628;48.884;9.210;2022-09-25T17:27:51;5.97;;;5.57;;
3231;SDS011;1628;48.884;9.210;2022-09-25T17:30:18;5.20;;;4.90;;
3231;SDS011;1628;48.884;9.210;2022-09-25T17:32:44;6.70;;;6.10;;
3231;SDS011;1628;48.884;9.210;2022-09-25T17:35:26;6.40;;;5.90;;
3231;SDS011;1628;48.884;9.210;2022-09-25T17:37:56;6.40;;;5.90;;
3231;SDS011;1628;48.884;9.210;2022-09-25T17:40:23;7.20;;;6.70;;
3231;SDS011;1628;48.884;9.210;2022-09-25T17:42:49;7.73;;;7.00;;
3231;SDS011;1628;48.884;9.210;2022-09-25T17:45:22;8.70;;;8.00;;
3231;SDS011;1628;48.884;9.210;2022-09-25T17:47:52;9.10;;;8.40;;
3231;SDS011;1628;48.884;9.210;2022-09-25T17:50:20;12.70;;;11.50;;
3231;SDS011;1628;48.884;9.210;2022-09-25T17:52:47;11.83;;;10.90;;
3231;SDS011;1628;48.884;9.210;2022-09-25T17:55:14;12.17;;;11.17;;
3231;SDS011;1628;48.884;9.210;2022-09-25T17:57:42;14.03;;;12.93;;
3231;SDS011;1628;48.884;9.210;2022-09-25T18:00:11;14.57;;;13.27;;
3231;SDS011;1628;48.884;9.210;2022-09-25T18:02:38;13.87;;;12.67;;
3231;SDS011;1628;48.884;9.210;2022-09-25T18:05:06;14.13;;;12.93;;
3231;SDS011;1628;48.884;9.210;2022-09-25T18:07:36;14.90;;;13.60;;
3231;SDS011;1628;48.884;9.210;2022-09-25T18:10:04;16.00;;;14.60;;
3231;SDS011;1628;48.884;9.210;2022-09-25T18:12:31;14.93;;;13.70;;
3231;SDS011;1628;48.884;9.210;2022-09-25T18:14:58;16.50;;;14.90;;
3231;SDS011;1628;48.884;9.210;2022-09-25T18:17:25;16.50;;;15.00;;
3231;SDS011;1628;48.884;9.210;2022-09-25T18:19:52;16.03;;;14.43;;
3231;SDS011;1628;48.884;9.210;2022-09-25T18:22:36;15.60;;;14.20;;
3231;SDS011;1628;48.884;9.210;2022-09-25T18:25:03;15.00;;;13.70;;
3231;SDS011;1628;48.884;9.210;2022-09-25T18:27:31;16.30;;;14.70;;
3231;SDS011;1628;48.884;9.210;2022-09-25T18:29:59;16.13;;;14.73;;
3231;SDS011;1628;48.884;9.210;2022-09-25T18:32:27;17.97;;;16.37;;
3231;SDS011;1628;48.884;9.210;2022-09-25T18:34:55;16.90;;;15.50;;
3231;SDS011;1628;48.884;9.210;2022-09-25T18:37:22;18.87;;;16.87;;
3231;SDS011;1628;48.884;9.210;2022-09-25T18:39:48;18.70;;;16.80;;
3231;SDS011;1628;48.884;9.210;2022-09-25T18:42:15;18.27;;;16.60;;
3231;SDS011;1628;48.884;9.210;2022-09-25T18:44:42;17.60;;;16.10;;
3231;SDS011;1628;48.884;9.210;2022-09-25T18:47:09;17.77;;;16.07;;
3231;SDS011;1628;48.884;9.210;2022-09-25T18:49:37;18.07;;;16.57;;
3231;SDS011;1628;48.884;9.210;2022-09-25T18:52:05;18.13;;;16.50;;
3231;SDS011;1628;48.884;9.210;2022-09-25T18:54:31;18.60;;;16.80;;
3231;SDS011;1628;48.884;9.210;2022-09-25T18:56:58;18.83;;;17.10;;
3231;SDS011;1628;48.884;9.210;2022-09-25T18:59:25;18.70;;;17.00;;
3231;SDS011;1628;48.884;9.210;2022-09-25T19:01:52;19.13;;;16.93;;
3231;SDS011;1628;48.884;9.210;2022-09-25T19:04:19;18.03;;;16.33;;
3231;SDS011;1628;48.884;9.210;2022-09-25T19:06:48;18.43;;;16.17;;
3231;SDS011;1628;48.884;9.210;2022-09-25T19:09:15;18.17;;;16.47;;
3231;SDS011;1628;48.884;9.210;2022-09-25T19:11:42;18.73;;;17.00;;
3231;SDS011;1628;48.884;9.210;2022-09-25T19:14:09;17.03;;;15.53;;
3231;SDS011;1628;48.884;9.210;2022-09-25T19:16:38;16.90;;;15.40;;
3231;SDS011;1628;48.884;9.210;2022-09-25T19:19:05;18.00;;;16.10;;
3231;SDS011;1628;48.884;9.210;2022-09-25T19:21:32;17.53;;;15.83;;
3231;SDS011;1628;48.884;9.210;2022-09-25T19:24:00;18.07;;;16.10;;
3231;SDS011;1628;48.884;9.210;2022-09-25T19:26:28;18.70;;;15.20;;
3231;SDS011;1628;48.884;9.210;2022-09-25T19:28:55;17.20;;;15.40;;
3231;SDS011;1628;48.884;9.210;2022-09-25T19:31:22;17.17;;;15.53;;
3231;SDS011;1628;48.884;9.210;2022-09-25T19:33:51;23.20;;;17.00;;
3231;SDS011;1628;48.884;9.210;2022-09-25T19:36:19;16.07;;;14.57;;
3231;SDS011;1628;48.884;9.210;2022-09-25T19:38:48;17.50;;;15.97;;